Time;durP1;ratioP1;P1;durP2;ratioP2;P2;SDS_P1;SDS_P2;PMS_P1;PMS_P2;Temp;Humidity;BMP_temperature;BMP_pressure;BME280_temperature;BME280_humidity;BME280_pressure;Samples;Min_cycle;Max_cycle;Signal;HPM_P1;HPM_P2
2021/08/28 00:02:19;;;;;;;4.85;3.75;;;;;;;15.06;74.09;96625.38;5039214;28;20038;-80
2021/08/28 00:04:48;;;;;;;4.70;3.03;;;;;;;15.08;75.00;96624.16;5039273;28;20077;-81
2021/08/28 00:07:19;;;;;;;4.15;3.75;;;;;;;15.06;74.20;96626.16;5039661;28;20109;-81
2021/08/28 00:09:48;;;;;;;4.47;3.47;;;;;;;15.07;75.02;96627.00;5039451;28;20073;-81
2021/08/28 00:12:16;;;;;;;6.55;4.55;;;;;;;15.08;74.74;96624.16;5039772;28;20053;-81
2021/08/28 00:14:48;;;;;;;5.00;3.88;;;;;;;15.05;74.72;96624.56;5039420;28;20072;-81
2021/08/28 00:17:19;;;;;;;4.07;3.67;;;;;;;15.03;74.69;96621.34;5039361;28;20061;-80
2021/08/28 00:19:48;;;;;;;5.50;4.07;;;;;;;15.04;75.09;96622.94;5038918;28;20030;-81
2021/08/28 00:22:18;;;;;;;4.13;3.72;;;;;;;15.04;75.12;96623.78;5039390;28;20049;-81
2021/08/28 00:24:48;;;;;;;5.40;3.30;;;;;;;15.04;75.68;96618.53;5039309;28;20492;-80
2021/08/28 00:27:17;;;;;;;5.32;4.05;;;;;;;15.06;75.63;96620.91;5039143;28;20054;-80
2021/08/28 00:29:46;;;;;;;3.83;3.42;;;;;;;15.06;75.38;96620.91;5040263;28;20054;-80
2021/08/28 00:32:14;;;;;;;5.80;4.82;;;;;;;15.05;75.30;96616.69;5040189;28;20068;-80
2021/08/28 00:34:43;;;;;;;6.25;4.25;;;;;;;15.03;75.69;96618.72;5039993;28;20042;-81
2021/08/28 00:37:12;;;;;;;4.78;3.90;;;;;;;15.02;75.55;96614.47;5037673;28;20054;-81
2021/08/28 00:39:42;;;;;;;5.45;4.40;;;;;;;14.99;75.82;96612.28;5037159;28;20038;-81
2021/08/28 00:42:11;;;;;;;4.60;4.05;;;;;;;14.99;75.75;96609.66;5037709;28;20046;-81
2021/08/28 00:44:43;;;;;;;4.82;4.05;;;;;;;14.97;75.46;96615.09;5037405;28;20089;-80
2021/08/28 00:47:15;;;;;;;5.18;3.80;;;;;;;14.95;75.13;96614.50;5037762;28;20493;-82
2021/08/28 00:49:44;;;;;;;5.50;4.22;;;;;;;14.92;75.36;96617.56;5038373;28;20058;-81
2021/08/28 00:52:13;;;;;;;4.18;3.78;;;;;;;14.90;75.25;96618.78;5038303;28;20098;-81
2021/08/28 00:54:44;;;;;;;4.35;3.88;;;;;;;14.89;75.79;96617.16;5038317;28;20049;-80
2021/08/28 00:57:13;;;;;;;5.75;3.92;;;;;;;14.89;75.67;96615.34;5038526;28;20052;-81
2021/08/28 00:59:42;;;;;;;5.07;4.53;;;;;;;14.91;75.68;96626.47;5038412;28;20089;-81
2021/08/28 01:02:12;;;;;;;4.90;4.45;;;;;;;14.89;75.44;96619.78;5038344;28;20077;-81
2021/08/28 01:04:49;;;;;;;5.05;4.22;;;;;;;14.88;75.68;96623.44;5038387;28;20065;-81
2021/08/28 01:07:22;;;;;;;5.20;4.70;;;;;;;14.89;76.04;96617.16;5038181;28;20029;-81
2021/08/28 01:09:58;;;;;;;5.72;4.47;;;;;;;14.88;75.92;96613.72;5038854;28;20053;-82
2021/08/28 01:12:31;;;;;;;5.00;4.53;;;;;;;14.87;75.54;96616.56;5038539;28;20050;-81
2021/08/28 01:15:03;;;;;;;7.30;5.05;;;;;;;14.84;75.15;96613.31;5038456;28;20068;-81
2021/08/28 01:17:35;;;;;;;5.25;4.75;;;;;;;14.83;76.62;96609.09;5038567;28;20069;-82
2021/08/28 01:20:08;;;;;;;5.53;4.93;;;;;;;14.81;76.60;96608.50;5038103;28;20077;-81
2021/08/28 01:22:41;;;;;;;5.22;4.28;;;;;;;14.81;76.70;96607.72;5038397;28;20045;-82
2021/08/28 01:25:13;;;;;;;5.03;4.38;;;;;;;14.80;76.06;96601.66;5038688;28;20030;-81
2021/08/28 01:27:49;;;;;;;7.43;5.38;;;;;;;14.79;77.00;96605.28;5038473;28;20062;-81
2021/08/28 01:30:22;;;;;;;5.35;4.20;;;;;;;14.77;76.37;96601.25;5038487;28;20050;-81
2021/08/28 01:32:51;;;;;;;4.88;4.40;;;;;;;14.76;76.26;96604.91;5038501;28;20061;-81
2021/08/28 01:35:22;;;;;;;5.55;4.30;;;;;;;14.74;76.30;96607.72;5038274;28;20068;-81
2021/08/28 01:37:55;;;;;;;6.13;4.70;;;;;;;14.75;76.44;96609.34;5038439;28;20042;-81
2021/08/28 01:40:24;;;;;;;;;;;;;;;14.78;76.21;96613.34;5039315;28;20080;-81
2021/08/28 01:42:57;;;;;;;4.82;3.97;;;;;;;14.76;76.15;96600.47;5038320;28;19928;-81
2021/08/28 01:45:30;;;;;;;4.85;4.35;;;;;;;14.78;76.02;96602.84;5038666;28;20183;-81
2021/08/28 01:48:03;;;;;;;5.90;4.70;;;;;;;14.77;76.67;96599.44;5038421;28;20057;-82
2021/08/28 01:50:34;;;;;;;4.85;4.35;;;;;;;14.77;76.52;96603.88;5038330;28;20056;-80
2021/08/28 01:55:42;;;;;;;6.07;5.38;;;;;;;14.78;76.10;96608.09;5501064;23;20049;-82
2021/08/28 02:06:21;;;;;;;6.72;5.10;;;;;;;14.75;77.63;96611.97;6048469;23;20101;-80
2021/08/28 02:08:56;;;;;;;5.47;4.97;;;;;;;14.75;76.56;96606.69;5017576;28;20579;-81
2021/08/28 02:11:33;;;;;;;5.47;4.55;;;;;;;14.76;77.22;96610.97;5017948;28;20061;-81
2021/08/28 02:14:08;;;;;;;6.50;5.90;;;;;;;14.76;76.91;96610.97;5017641;28;20050;-80
2021/08/28 02:16:39;;;;;;;7.07;6.38;;;;;;;14.72;76.08;96609.75;5017867;28;20057;-81
2021/08/28 02:19:13;;;;;;;5.78;5.28;;;;;;;14.71;77.27;96612.59;5018127;28;20030;-81
2021/08/28 02:21:45;;;;;;;6.65;5.60;;;;;;;14.73;77.29;96610.56;5027409;23;20054;-82
2021/08/28 02:24:17;;;;;;;9.17;5.93;;;;;;;14.73;77.23;96606.09;4993748;28;20050;-81
2021/08/28 02:26:51;;;;;;;8.82;5.25;;;;;;;14.72;76.11;96607.13;4994626;28;20054;-81
2021/08/28 02:29:22;;;;;;;7.47;5.38;;;;;;;14.72;76.66;96607.13;4994288;28;20054;-81
2021/08/28 02:31:51;;;;;;;5.70;5.10;;;;;;;14.75;77.57;96608.53;4994192;28;20054;-81
2021/08/28 02:34:20;;;;;;;7.55;5.63;;;;;;;14.77;77.45;96602.06;4993637;28;20528;-81
2021/08/28 02:36:49;;;;;;;6.13;4.70;;;;;;;14.78;77.71;96606.31;4994332;28;20048;-81
2021/08/28 02:39:19;;;;;;;8.82;5.93;;;;;;;14.80;77.49;96606.91;4993909;28;20494;-81
2021/08/28 02:41:47;;;;;;;5.80;5.30;;;;;;;14.79;76.63;96593.97;4993813;28;20058;-81
2021/08/28 02:44:16;;;;;;;6.57;5.22;;;;;;;14.78;76.92;96606.31;4993609;28;20065;-81
2021/08/28 02:46:45;;;;;;;7.15;5.60;;;;;;;14.78;77.09;96603.69;4993756;28;20054;-81
2021/08/28 02:49:15;;;;;;;5.75;5.13;;;;;;;14.78;77.42;96598.44;4994348;28;20227;-82
2021/08/28 02:51:45;;;;;;;5.57;4.82;;;;;;;14.78;77.01;96601.06;4994094;28;20058;-82
2021/08/28 02:54:16;;;;;;;5.53;5.03;;;;;;;14.79;77.29;96597.41;4993891;28;20046;-81
2021/08/28 02:56:47;;;;;;;6.00;5.40;;;;;;;14.80;77.50;96596.41;4993537;28;20522;-82
2021/08/28 02:59:16;;;;;;;5.60;5.10;;;;;;;14.80;77.22;96606.91;4993955;28;20051;-81
2021/08/28 03:01:45;;;;;;;5.22;4.80;;;;;;;14.80;77.50;96604.28;4993974;28;20047;-82
2021/08/28 03:04:18;;;;;;;6.05;5.20;;;;;;;14.81;77.22;96613.75;4994015;28;20057;-81
2021/08/28 03:06:46;;;;;;;6.05;5.50;;;;;;;14.79;76.93;96604.47;4998579;28;20055;-81
2021/08/28 03:09:17;;;;;;;5.03;4.57;;;;;;;14.77;76.95;96607.31;4998149;28;20494;-81
2021/08/28 03:11:45;;;;;;;5.63;5.03;;;;;;;14.75;77.28;96609.34;4997675;28;20051;-81
2021/08/28 03:14:13;;;;;;;5.35;4.60;;;;;;;14.72;76.79;96609.75;4997860;28;20046;-82
2021/08/28 03:16:44;;;;;;;5.93;5.10;;;;;;;14.72;77.46;96604.50;4997691;28;20046;-81
2021/08/28 03:19:13;;;;;;;6.20;5.20;;;;;;;14.72;77.38;96608.97;4997836;28;20137;-82
2021/08/28 03:21:42;;;;;;;5.13;4.13;;;;;;;14.72;77.53;96604.50;4997800;28;20064;-82
2021/08/28 03:24:11;;;;;;;4.78;4.25;;;;;;;14.71;76.76;96605.50;4997507;28;20049;-81
2021/08/28 03:26:48;;;;;;;5.93;4.40;;;;;;;14.70;76.44;96603.91;4997740;28;20586;-81
2021/08/28 03:29:16;;;;;;;4.63;4.20;;;;;;;14.66;76.41;96610.59;4997481;28;20050;-81
2021/08/28 03:31:44;;;;;;;5.97;4.43;;;;;;;14.65;76.60;96601.09;4997524;28;20529;-82
2021/08/28 03:34:14;;;;;;;5.95;5.00;;;;;;;14.62;76.54;96606.75;4997445;28;20097;-81
2021/08/28 03:36:43;;;;;;;5.07;4.57;;;;;;;14.62;77.36;96604.13;4997803;28;20083;-81
2021/08/28 03:39:11;;;;;;;6.05;5.47;;;;;;;14.60;76.34;96603.53;4997401;28;20541;-81
2021/08/28 03:41:39;;;;;;;5.22;4.75;;;;;;;14.58;76.64;96610.81;4997186;28;20053;-81
2021/08/28 03:44:13;;;;;;;5.63;5.03;;;;;;;14.57;76.65;96607.38;4997017;28;20109;-82
2021/08/28 03:46:41;;;;;;;5.50;5.00;;;;;;;14.55;75.86;96608.59;4997169;28;20062;-81
2021/08/28 03:49:09;;;;;;;6.63;5.00;;;;;;;14.51;76.69;96602.91;4997201;28;20053;-81
2021/08/28 03:51:37;;;;;;;5.80;5.30;;;;;;;14.51;77.25;96608.16;4996742;28;20057;-82
2021/08/28 03:54:04;;;;;;;5.47;4.97;;;;;;;14.53;77.27;96613.22;4997686;28;20057;-82
2021/08/28 03:56:32;;;;;;;6.18;5.18;;;;;;;14.55;77.36;96613.84;5007371;28;20064;-81
2021/08/28 03:58:59;;;;;;;6.07;5.47;;;;;;;14.54;77.48;96612.19;5012404;28;20096;-81
2021/08/28 04:01:28;;;;;;;5.95;5.45;;;;;;;14.55;77.31;96613.84;5011716;28;20046;-81
2021/08/28 04:03:56;;;;;;;5.78;5.07;;;;;;;14.51;76.67;96613.41;5000569;28;20043;-82
2021/08/28 04:06:23;;;;;;;6.47;5.28;;;;;;;14.53;77.48;96615.84;4997470;28;20065;-81
2021/08/28 04:08:51;;;;;;;6.15;5.65;;;;;;;14.52;77.37;96615.03;4997192;28;20054;-81
2021/08/28 04:11:18;;;;;;;6.40;5.57;;;;;;;14.49;77.45;96615.44;4996990;28;20050;-81
2021/08/28 04:13:46;;;;;;;6.30;5.70;;;;;;;14.52;78.10;96619.47;4996941;28;20053;-82
2021/08/28 04:16:14;;;;;;;7.05;5.63;;;;;;;14.54;77.69;96614.81;4996404;28;20519;-82
2021/08/28 04:18:43;;;;;;;6.43;5.82;;;;;;;14.56;77.85;96620.69;4996901;28;20521;-81
2021/08/28 04:21:10;;;;;;;6.47;5.72;;;;;;;14.59;77.57;96620.31;4996890;28;20466;-82
2021/08/28 04:23:38;;;;;;;6.85;6.20;;;;;;;14.59;77.28;96620.31;4996329;28;20050;-81
2021/08/28 04:26:06;;;;;;;6.82;6.20;;;;;;;14.60;77.27;96616.66;4996548;28;20055;-81
2021/08/28 04:28:33;;;;;;;7.07;5.68;;;;;;;14.59;76.89;96620.31;4996922;28;20065;-82
2021/08/28 04:31:01;;;;;;;7.72;5.72;;;;;;;14.58;77.03;96616.88;4996517;28;20454;-81
2021/08/28 04:33:28;;;;;;;6.30;5.65;;;;;;;14.59;76.92;96615.84;4996588;28;20054;-82
2021/08/28 04:35:57;;;;;;;8.18;6.05;;;;;;;14.58;76.47;96624.75;4996558;28;20062;-81
2021/08/28 04:38:25;;;;;;;6.55;5.85;;;;;;;14.59;77.25;96615.06;4996665;28;20046;-80
2021/08/28 04:40:53;;;;;;;5.72;5.25;;;;;;;14.58;76.64;96619.50;4996947;28;20057;-81
2021/08/28 04:43:21;;;;;;;5.10;4.60;;;;;;;14.57;77.02;96617.88;4996188;28;20422;-81
2021/08/28 04:45:48;;;;;;;5.70;4.50;;;;;;;14.57;77.00;96627.56;4996338;28;20050;-81
2021/08/28 04:48:16;;;;;;;5.88;4.45;;;;;;;14.57;77.01;96619.69;4997136;28;20054;-82
2021/08/28 04:50:47;;;;;;;5.57;5.07;;;;;;;14.57;76.79;96612.63;4998148;28;20054;-81
2021/08/28 04:53:16;;;;;;;4.97;4.47;;;;;;;14.57;76.76;96622.31;5010768;28;20051;-82
2021/08/28 04:55:45;;;;;;;5.28;4.78;;;;;;;14.57;76.52;96623.13;5003216;28;20054;-82
2021/08/28 04:58:13;;;;;;;5.47;5.07;;;;;;;14.58;76.60;96622.13;5008072;28;20053;-81
2021/08/28 05:00:40;;;;;;;5.85;5.25;;;;;;;14.58;76.38;96629.19;5011607;28;20046;-81
2021/08/28 05:03:08;;;;;;;5.55;4.68;;;;;;;14.57;76.25;96632.81;4997035;28;20050;-81
2021/08/28 05:05:35;;;;;;;4.80;4.30;;;;;;;14.56;76.43;96629.41;4996673;28;20057;-81
2021/08/28 05:08:03;;;;;;;5.20;4.72;;;;;;;14.56;76.24;96632.03;4997355;28;20061;-81
2021/08/28 05:10:32;;;;;;;5.65;4.35;;;;;;;14.58;76.45;96637.06;4997011;28;20054;-81
2021/08/28 05:13:00;;;;;;;5.78;4.97;;;;;;;14.58;76.62;96643.13;4996676;28;20042;-81
2021/08/28 05:15:27;;;;;;;5.10;4.60;;;;;;;14.58;75.97;96634.44;4996845;28;20062;-81
2021/08/28 05:17:55;;;;;;;4.93;4.22;;;;;;;14.58;75.88;96634.44;4996194;28;20065;-81
2021/08/28 05:20:23;;;;;;;5.10;4.70;;;;;;;14.57;76.00;96638.88;4995873;28;20081;-81
2021/08/28 05:22:50;;;;;;;5.28;4.78;;;;;;;14.57;76.17;96643.31;4995292;28;20054;-81
2021/08/28 05:25:18;;;;;;;4.50;4.10;;;;;;;14.58;75.85;96650.19;4995486;28;20050;-81
2021/08/28 05:27:47;;;;;;;5.05;4.55;;;;;;;14.57;75.30;96643.31;4994420;28;20054;-82
2021/08/28 05:30:14;;;;;;;5.55;5.05;;;;;;;14.54;75.16;96649.78;4995062;28;20054;-81
2021/08/28 05:32:43;;;;;;;5.57;4.68;;;;;;;14.54;75.42;96651.56;4994645;28;20061;-81
2021/08/28 05:35:12;;;;;;;5.50;4.22;;;;;;;14.53;75.98;96647.34;4995254;28;20053;-81
2021/08/28 05:37:39;;;;;;;5.25;4.15;;;;;;;14.55;75.91;96647.97;4995262;28;20050;-81
2021/08/28 05:40:08;;;;;;;4.60;4.18;;;;;;;14.57;76.35;96651.19;4995764;28;20061;-82
2021/08/28 05:42:36;;;;;;;5.78;5.25;;;;;;;14.59;75.74;96649.19;4994912;28;20054;-81
2021/08/28 05:45:05;;;;;;;5.82;4.75;;;;;;;14.59;75.82;96651.81;4994615;28;20536;-81
2021/08/28 05:47:33;;;;;;;6.43;4.57;;;;;;;14.58;75.67;96658.88;4994618;28;20054;-82
2021/08/28 05:50:01;;;;;;;6.13;4.80;;;;;;;14.57;75.66;96659.88;4995278;28;20050;-81
2021/08/28 05:52:28;;;;;;;4.80;4.20;;;;;;;14.57;75.80;96659.06;4994520;28;20050;-82
2021/08/28 05:54:55;;;;;;;5.88;4.90;;;;;;;14.58;75.76;96664.13;4994697;28;20042;-82
2021/08/28 05:57:23;;;;;;;6.13;5.53;;;;;;;14.59;76.67;96668.34;4995245;28;20054;-81
2021/08/28 05:59:51;;;;;;;5.50;4.85;;;;;;;14.61;76.27;96662.91;4994919;28;20061;-82
2021/08/28 06:02:20;;;;;;;5.50;5.03;;;;;;;14.63;76.24;96666.13;4994532;28;20050;-82
2021/08/28 06:04:48;;;;;;;6.70;5.13;;;;;;;14.63;75.83;96663.50;4994914;28;20418;-81
2021/08/28 06:07:15;;;;;;;5.38;4.88;;;;;;;14.63;76.01;96663.50;4995010;28;20061;-81
2021/08/28 06:09:43;;;;;;;5.43;4.93;;;;;;;14.63;75.41;96668.75;4995152;28;20065;-81
2021/08/28 06:12:11;;;;;;;4.70;4.30;;;;;;;14.65;75.73;96660.66;4994877;28;20466;-82
2021/08/28 06:14:38;;;;;;;6.25;5.65;;;;;;;14.69;75.95;96665.28;4994774;28;20061;-81
2021/08/28 06:17:06;;;;;;;6.65;5.20;;;;;;;14.69;76.17;96667.91;4995050;28;20050;-82
2021/08/28 06:19:35;;;;;;;5.65;4.95;;;;;;;14.71;76.28;96663.28;4994578;28;20051;-82
2021/08/28 06:22:03;;;;;;;5.70;4.60;;;;;;;14.71;76.33;96663.28;4994740;28;20069;-82
2021/08/28 06:24:30;;;;;;;4.82;4.30;;;;;;;14.74;76.61;96665.50;4994670;28;20418;-82
2021/08/28 06:26:58;;;;;;;5.18;4.78;;;;;;;14.79;76.40;96667.50;4995307;28;20410;-82
2021/08/28 06:29:25;;;;;;;6.97;5.28;;;;;;;14.81;75.53;96666.28;4995383;28;20054;-81
2021/08/28 06:31:53;;;;;;;5.72;5.10;;;;;;;14.83;75.99;96668.72;4995608;28;20230;-81
2021/08/28 06:34:20;;;;;;;5.05;4.55;;;;;;;14.85;75.96;96669.31;5001848;28;20114;-81
2021/08/28 06:36:49;;;;;;;4.90;4.43;;;;;;;14.85;75.57;96674.56;5000789;28;20046;-81
2021/08/28 06:39:17;;;;;;;5.85;4.60;;;;;;;14.87;75.18;96669.09;5000509;28;20050;-82
2021/08/28 06:41:45;;;;;;;5.45;4.35;;;;;;;14.86;74.90;96678.00;5000838;28;20062;-81
2021/08/28 06:44:12;;;;;;;5.28;4.80;;;;;;;14.84;74.29;96668.47;4999592;28;20057;-82
2021/08/28 06:46:40;;;;;;;6.22;4.93;;;;;;;14.83;74.62;96672.13;5001041;28;20046;-81
2021/08/28 06:49:08;;;;;;;5.43;4.93;;;;;;;14.86;75.78;96670.09;5001412;28;20505;-81
2021/08/28 06:51:35;;;;;;;6.00;5.32;;;;;;;14.89;74.92;96667.88;5000846;28;20077;-82
2021/08/28 06:54:04;;;;;;;6.57;5.13;;;;;;;14.90;74.20;96672.09;5002370;28;20465;-81
2021/08/28 06:56:32;;;;;;;5.38;4.88;;;;;;;14.90;73.31;96672.09;5002306;28;20061;-80
2021/08/28 06:58:59;;;;;;;6.32;4.60;;;;;;;14.91;73.98;96671.13;5002319;28;20058;-82
2021/08/28 07:01:27;;;;;;;4.88;4.40;;;;;;;14.92;73.73;96671.91;4998935;28;20498;-81
2021/08/28 07:03:55;;;;;;;4.68;4.28;;;;;;;14.92;74.38;96662.22;4994988;28;20050;-82
2021/08/28 07:06:23;;;;;;;6.00;5.40;;;;;;;14.93;73.26;96663.00;4994665;28;20062;-81
2021/08/28 07:08:50;;;;;;;5.47;4.97;;;;;;;14.90;73.23;96653.72;4994585;28;20054;-81
2021/08/28 07:11:19;;;;;;;4.85;4.45;;;;;;;14.88;73.33;96657.56;4994076;28;20050;-81
2021/08/28 07:13:47;;;;;;;5.95;5.10;;;;;;;14.88;72.58;96661.00;4994049;28;20058;-81
2021/08/28 07:16:14;;;;;;;6.22;5.38;;;;;;;14.89;72.51;96653.91;4993954;28;20529;-81
2021/08/28 07:18:42;;;;;;;5.13;4.55;;;;;;;14.89;72.74;96656.56;4994100;28;20078;-81
2021/08/28 07:21:10;;;;;;;5.88;4.55;;;;;;;14.90;72.85;96656.34;4994059;28;20058;-82
2021/08/28 07:23:37;;;;;;;3.95;3.58;;;;;;;14.92;72.95;96661.41;4994004;28;20050;-81
2021/08/28 07:26:05;;;;;;;4.30;3.90;;;;;;;14.90;71.88;96666.84;4994464;28;20396;-81
2021/08/28 07:28:34;;;;;;;5.68;4.13;;;;;;;14.88;71.91;96666.25;4993933;28;20622;-82
2021/08/28 07:31:02;;;;;;;4.43;4.07;;;;;;;14.88;72.40;96665.47;4994670;28;20054;-81
2021/08/28 07:33:30;;;;;;;4.40;3.65;;;;;;;14.87;72.98;96662.03;4993951;28;20055;-81
2021/08/28 07:35:57;;;;;;;4.88;4.38;;;;;;;14.87;73.12;96659.41;4994746;28;20061;-82
2021/08/28 07:38:25;;;;;;;4.20;3.67;;;;;;;14.86;72.56;96657.78;4996708;28;20057;-81
2021/08/28 07:40:52;;;;;;;4.07;3.70;;;;;;;14.87;72.04;96658.56;5002873;28;20074;-81
2021/08/28 07:43:20;;;;;;;4.40;3.97;;;;;;;14.87;71.92;96654.16;5002408;28;20069;-82
2021/08/28 07:45:48;;;;;;;5.93;5.25;;;;;;;14.89;71.63;96656.56;5001734;28;20046;-81
2021/08/28 07:48:16;;;;;;;4.53;4.13;;;;;;;14.91;71.50;96665.03;5002133;28;20112;-82
2021/08/28 07:50:44;;;;;;;4.07;3.47;;;;;;;14.94;72.14;96662.00;5000983;28;20054;-82
2021/08/28 07:53:11;;;;;;;4.07;3.67;;;;;;;14.99;71.69;96670.84;5003459;28;20046;-82
2021/08/28 07:55:39;;;;;;;4.10;3.67;;;;;;;15.05;72.21;96671.88;5002705;28;20053;-81
2021/08/28 07:58:06;;;;;;;3.72;3.42;;;;;;;15.08;71.16;96668.81;5002120;28;20058;-82
2021/08/28 08:00:34;;;;;;;7.75;3.70;;;;;;;15.11;71.15;96668.41;4999134;28;20054;-81
2021/08/28 08:03:03;;;;;;;3.78;3.15;;;;;;;15.14;71.82;96673.22;4996972;28;20051;-82
2021/08/28 08:05:31;;;;;;;3.53;3.22;;;;;;;15.14;71.42;96667.97;4997583;28;20510;-80
2021/08/28 08:07:58;;;;;;;3.78;2.97;;;;;;;15.13;71.32;96674.25;4999580;28;20134;-81
2021/08/28 08:10:26;;;;;;;3.05;2.85;;;;;;;15.12;71.59;96671.84;4999566;28;20065;-81
2021/08/28 08:12:54;;;;;;;4.15;2.75;;;;;;;15.12;71.96;96677.88;4998645;28;20047;-81
2021/08/28 08:15:21;;;;;;;3.60;3.30;;;;;;;15.12;70.85;96682.34;4999421;28;20065;-81
2021/08/28 08:17:49;;;;;;;2.90;2.70;;;;;;;15.09;70.32;96674.88;4997996;28;20786;-80
2021/08/28 08:20:18;;;;;;;2.80;2.60;;;;;;;15.06;69.99;96678.72;4998121;28;20289;-82
2021/08/28 08:28:04;;;;;;;2.42;2.22;;;;;;;15.10;70.26;96687.00;5893405;23;20100;-82
2021/08/28 08:36:00;;;;;;;2.38;2.22;;;;;;;15.30;69.54;96682.47;5545982;23;20061;-81
2021/08/28 08:38:29;;;;;;;2.83;1.98;;;;;;;15.42;69.33;96680.00;5020476;28;20061;-81
2021/08/28 08:41:00;;;;;;;2.40;2.20;;;;;;;15.52;69.66;96677.69;5004055;28;20122;-81
2021/08/28 08:43:34;;;;;;;1.92;1.83;;;;;;;15.60;68.97;96682.72;5020480;28;20046;-80
2021/08/28 08:51:31;;;;;;;2.03;1.92;;;;;;;15.72;66.95;96679.44;4979836;28;20035;-81
2021/08/28 08:54:01;;;;;;;1.85;1.75;;;;;;;15.74;67.73;96680.84;4981103;28;20046;-80
2021/08/28 08:56:30;;;;;;;1.95;1.80;;;;;;;15.77;68.08;96682.25;4981477;28;20039;-81
2021/08/28 08:59:01;;;;;;;2.17;1.98;;;;;;;15.79;67.81;96688.09;4981364;28;20051;-81
2021/08/28 09:01:30;;;;;;;2.08;1.90;;;;;;;15.79;67.36;96683.66;4981097;28;20075;-80
2021/08/28 09:03:58;;;;;;;1.80;1.48;;;;;;;15.79;67.85;96688.91;5007620;23;20061;-81
2021/08/28 09:06:27;;;;;;;1.73;1.63;;;;;;;15.78;68.10;96683.84;4997047;28;20046;-80
2021/08/28 09:08:55;;;;;;;1.55;1.45;;;;;;;15.79;67.76;96688.09;4997393;28;20046;-80
2021/08/28 09:11:24;;;;;;;1.75;1.65;;;;;;;15.79;67.39;96690.75;4997196;28;20049;-80
2021/08/28 09:13:53;;;;;;;2.40;2.20;;;;;;;15.82;67.68;96693.72;4996399;28;20050;-81
2021/08/28 09:16:31;;;;;;;2.60;1.55;;;;;;;15.86;68.50;96694.91;4996057;28;20061;-80
2021/08/28 09:18:59;;;;;;;2.38;2.00;;;;;;;15.91;67.68;96690.84;4996280;28;20117;-81
2021/08/28 09:21:33;;;;;;;2.05;1.92;;;;;;;15.95;67.36;96695.47;4996234;28;20054;-81
2021/08/28 09:24:01;;;;;;;2.50;2.30;;;;;;;15.97;66.74;96696.06;4996514;28;20053;-80
2021/08/28 09:26:33;;;;;;;2.30;2.10;;;;;;;15.97;67.35;96700.53;4996675;28;20061;-80
2021/08/28 09:29:01;;;;;;;2.50;2.30;;;;;;;15.97;68.33;96703.16;4996324;28;20050;-81
2021/08/28 09:31:41;;;;;;;2.35;2.20;;;;;;;15.96;66.88;96705.00;4996368;28;20062;-80
2021/08/28 09:34:20;;;;;;;2.63;2.03;;;;;;;15.94;67.79;96707.03;4995825;28;20064;-81
2021/08/28 09:36:55;;;;;;;3.90;2.40;;;;;;;15.90;66.62;96711.09;4996059;28;20058;-80
2021/08/28 09:39:38;;;;;;;1.60;1.50;;;;;;;15.88;65.80;96707.06;4996176;28;20046;-80
2021/08/28 09:42:06;;;;;;;1.85;1.63;;;;;;;15.86;66.09;96708.06;4995338;28;20502;-80
2021/08/28 09:44:38;;;;;;;1.63;1.45;;;;;;;15.86;67.21;96704.63;4995754;28;20053;-80
2021/08/28 09:47:11;;;;;;;2.83;2.35;;;;;;;15.87;67.51;96711.50;4995831;28;20047;-81
2021/08/28 09:49:40;;;;;;;1.25;1.25;;;;;;;15.86;67.20;96705.44;4995674;28;20450;-80
2021/08/28 09:52:12;;;;;;;1.80;1.70;;;;;;;15.84;66.03;96712.75;4995605;28;20069;-80
2021/08/28 09:54:40;;;;;;;1.55;1.45;;;;;;;15.84;65.72;96711.94;4995637;28;20126;-80
2021/08/28 09:57:08;;;;;;;1.67;1.52;;;;;;;15.82;65.70;96714.78;4996149;28;20054;-81
2021/08/28 09:59:36;;;;;;;1.50;1.40;;;;;;;15.83;64.96;96710.31;4996135;28;20142;-80
2021/08/28 10:02:05;;;;;;;1.40;1.30;;;;;;;15.81;65.80;96704.47;4995674;28;20050;-80
2021/08/28 10:04:52;;;;;;;1.00;1.00;;;;;;;15.84;65.24;96712.75;4995239;28;20141;-80
2021/08/28 10:07:24;;;;;;;1.67;1.58;;;;;;;15.91;66.25;96704.81;4995453;28;20046;-80
2021/08/28 10:09:55;;;;;;;1.40;1.30;;;;;;;15.95;66.46;96708.63;4995000;28;20062;-80
2021/08/28 10:12:31;;;;;;;0.93;0.90;;;;;;;15.99;66.31;96704.56;4994778;28;20054;-81
2021/08/28 10:15:01;;;;;;;1.25;1.15;;;;;;;16.03;65.58;96705.75;4994721;28;20085;-80
2021/08/28 10:17:31;;;;;;;1.63;1.30;;;;;;;16.04;65.07;96712.59;4994970;28;20061;-80
2021/08/28 10:20:01;;;;;;;1.75;1.65;;;;;;;16.06;64.97;96709.75;4995253;28;20054;-80
2021/08/28 10:22:34;;;;;;;1.40;1.30;;;;;;;16.04;64.30;96699.44;4994463;28;20047;-81
2021/08/28 10:25:04;;;;;;;;;;;;;;;16.06;64.75;96694.78;4995350;28;20158;-81
2021/08/28 10:27:31;;;;;;;1.80;1.40;;;;;;;16.05;65.30;96711.59;4995110;28;19922;-80
2021/08/28 10:30:00;;;;;;;1.30;1.20;;;;;;;16.06;66.05;96712.41;4995348;28;20057;-80
2021/08/28 10:32:28;;;;;;;1.27;1.20;;;;;;;16.06;65.19;96701.88;4995541;28;20054;-79
2021/08/28 10:34:56;;;;;;;1.02;1.02;;;;;;;16.05;65.30;96708.97;4996034;28;20430;-81
2021/08/28 10:37:23;;;;;;;1.42;1.33;;;;;;;16.02;64.96;96708.56;5002232;28;20047;-80
2021/08/28 10:39:53;;;;;;;2.15;1.45;;;;;;;16.00;65.13;96706.16;5016754;28;20050;-80
2021/08/28 10:42:22;;;;;;;1.23;1.17;;;;;;;16.00;65.73;96706.16;5016020;28;20038;-81
2021/08/28 10:44:51;;;;;;;1.60;1.50;;;;;;;16.00;65.84;96706.16;5016274;28;20034;-80
2021/08/28 10:47:22;;;;;;;1.30;1.30;;;;;;;16.01;66.00;96718.31;5007341;28;20058;-80
2021/08/28 10:49:51;;;;;;;1.40;1.30;;;;;;;16.01;65.85;96712.25;4996636;28;20046;-80
2021/08/28 10:52:20;;;;;;;1.30;1.30;;;;;;;16.01;65.48;96717.50;4995692;28;20061;-81
2021/08/28 10:54:54;;;;;;;1.20;1.10;;;;;;;15.97;65.28;96711.03;4996093;28;20054;-80
2021/08/28 10:57:27;;;;;;;1.40;1.30;;;;;;;15.93;65.27;96715.13;4995680;28;20298;-81
2021/08/28 11:00:01;;;;;;;1.45;1.30;;;;;;;15.91;65.05;96723.22;4995964;28;20058;-80
2021/08/28 11:02:56;;;;;;;1.95;1.27;;;;;;;15.93;65.19;96718.53;4995387;28;20046;-80
2021/08/28 11:05:27;;;;;;;1.50;1.40;;;;;;;15.93;65.35;96715.91;4995158;28;20050;-81
2021/08/28 11:07:56;;;;;;;1.40;1.30;;;;;;;15.95;65.37;96711.25;4995710;28;20054;-80
2021/08/28 11:10:26;;;;;;;2.75;1.73;;;;;;;15.97;63.89;96719.75;4994677;28;20061;-81
2021/08/28 11:12:56;;;;;;;2.47;2.28;;;;;;;15.95;64.57;96718.34;4994249;28;20050;-80
2021/08/28 11:15:44;;;;;;;1.80;1.70;;;;;;;15.98;65.08;96724.00;4994296;28;20054;-81
2021/08/28 11:18:14;;;;;;;3.67;2.20;;;;;;;16.01;65.23;96720.13;4994527;28;20050;-80
2021/08/28 11:20:44;;;;;;;2.90;1.70;;;;;;;16.05;65.32;96708.16;4994638;28;20054;-80
2021/08/28 11:23:13;;;;;;;1.35;1.25;;;;;;;16.08;63.83;96718.25;4994438;28;20050;-80
2021/08/28 11:25:44;;;;;;;2.17;1.90;;;;;;;16.11;63.59;96717.81;4995108;28;20050;-80
2021/08/28 11:28:12;;;;;;;2.60;1.58;;;;;;;16.16;64.12;96704.84;4998644;28;20050;-80
2021/08/28 11:30:57;;;;;;;1.85;1.75;;;;;;;16.24;63.38;96709.00;4998102;28;20058;-80
2021/08/28 11:33:27;;;;;;;3.25;1.50;;;;;;;16.30;63.72;96705.53;4998238;28;20054;-80
2021/08/28 11:35:57;;;;;;;1.63;0.95;;;;;;;16.37;64.75;96708.09;4998324;28;20050;-80
2021/08/28 11:38:39;;;;;;;1.10;1.10;;;;;;;16.46;64.52;96709.44;4998490;28;20050;-80
2021/08/28 11:41:11;;;;;;;1.20;1.20;;;;;;;16.57;64.55;96705.28;4998453;28;20057;-80
2021/08/28 11:43:41;;;;;;;1.57;1.47;;;;;;;16.69;62.54;96708.84;4997707;28;20061;-80
2021/08/28 11:46:11;;;;;;;1.52;1.27;;;;;;;16.80;62.52;96700.22;4998051;28;20057;-80
2021/08/28 11:48:42;;;;;;;1.15;1.15;;;;;;;17.02;63.19;96699.81;4997761;28;20167;-81
2021/08/28 11:51:12;;;;;;;0.90;0.90;;;;;;;17.24;62.75;96702.78;4998045;28;20525;-80
2021/08/28 11:53:41;;;;;;;1.63;1.20;;;;;;;17.42;61.67;96708.03;4997444;28;20058;-80
2021/08/28 11:56:13;;;;;;;1.13;1.02;;;;;;;17.59;62.25;96696.88;4997772;28;20514;-80
2021/08/28 11:58:51;;;;;;;1.58;1.48;;;;;;;17.70;59.57;96698.75;4998224;28;20065;-80
2021/08/28 12:01:31;;;;;;;0.88;0.88;;;;;;;17.74;58.41;96699.13;4997609;28;20536;-80
2021/08/28 12:04:01;;;;;;;0.60;0.60;;;;;;;17.78;56.97;96700.28;4997699;28;20510;-81
2021/08/28 12:06:30;;;;;;;0.50;0.50;;;;;;;17.91;58.48;96700.13;4998102;28;20056;-81
2021/08/28 12:08:58;;;;;;;0.80;0.80;;;;;;;18.04;57.12;96699.91;4997688;28;20047;-81
2021/08/28 12:11:28;;;;;;;0.77;0.77;;;;;;;18.13;58.40;96692.47;4998186;28;20415;-80
2021/08/28 12:13:57;;;;;;;0.60;0.60;;;;;;;18.26;57.72;96696.75;4997456;28;20537;-81